sensor_id;sensor_type;location;lat;lon;timestamp;P1;durP1;ratioP1;P2;durP2;ratioP2
10122;SDS011;5101;49.038;8.710;2023-06-14T00:00:30;3.95;;;3.55;;
10122;SDS011;5101;49.038;8.710;2023-06-14T00:02:56;3.42;;;3.13;;
10122;SDS011;5101;49.038;8.710;2023-06-14T00:05:21;4.80;;;3.00;;
10122;SDS011;5101;49.038;8.710;2023-06-14T00:07:48;6.28;;;3.05;;
10122;SDS011;5101;49.038;8.710;2023-06-14T00:10:14;4.30;;;3.50;;
10122;SDS011;5101;49.038;8.710;2023-06-14T00:12:40;3.65;;;3.42;;
10122;SDS011;5101;49.038;8.710;2023-06-14T00:15:06;4.20;;;3.40;;
10122;SDS011;5101;49.038;8.710;2023-06-14T00:17:34;5.10;;;3.50;;
10122;SDS011;5101;49.038;8.710;2023-06-14T00:20:01;3.67;;;3.38;;
10122;SDS011;5101;49.038;8.710;2023-06-14T00:22:29;4.60;;;3.17;;
10122;SDS011;5101;49.038;8.710;2023-06-14T00:24:55;3.50;;;3.20;;
10122;SDS011;5101;49.038;8.710;2023-06-14T00:27:21;3.50;;;3.20;;
10122;SDS011;5101;49.038;8.710;2023-06-14T00:29:46;3.78;;;3.47;;
10122;SDS011;5101;49.038;8.710;2023-06-14T00:32:12;4.88;;;3.45;;
10122;SDS011;5101;49.038;8.710;2023-06-14T00:34:37;4.38;;;3.20;;
10122;SDS011;5101;49.038;8.710;2023-06-14T00:37:03;5.05;;;3.55;;
10122;SDS011;5101;49.038;8.710;2023-06-14T00:39:29;4.22;;;3.45;;
10122;SDS011;5101;49.038;8.710;2023-06-14T00:41:54;4.82;;;3.72;;
10122;SDS011;5101;49.038;8.710;2023-06-14T00:44:20;5.80;;;3.72;;
10122;SDS011;5101;49.038;8.710;2023-06-14T00:46:46;3.33;;;3.03;;
10122;SDS011;5101;49.038;8.710;2023-06-14T00:49:13;8.40;;;3.47;;
10122;SDS011;5101;49.038;8.710;2023-06-14T00:51:40;4.68;;;3.28;;
10122;SDS011;5101;49.038;8.710;2023-06-14T00:54:09;3.80;;;3.20;;
10122;SDS011;5101;49.038;8.710;2023-06-14T00:56:35;3.92;;;3.58;;
10122;SDS011;5101;49.038;8.710;2023-06-14T00:59:02;5.18;;;3.83;;
10122;SDS011;5101;49.038;8.710;2023-06-14T01:01:28;5.93;;;3.70;;
10122;SDS011;5101;49.038;8.710;2023-06-14T01:03:57;4.03;;;3.60;;
10122;SDS011;5101;49.038;8.710;2023-06-14T01:06:27;5.47;;;3.47;;
10122;SDS011;5101;49.038;8.710;2023-06-14T01:09:05;4.47;;;3.13;;
10122;SDS011;5101;49.038;8.710;2023-06-14T01:12:27;4.53;;;3.45;;
10122;SDS011;5101;49.038;8.710;2023-06-14T01:14:31;4.10;;;3.70;;
10122;SDS011;5101;49.038;8.710;2023-06-14T01:16:59;4.35;;;3.50;;
10122;SDS011;5101;49.038;8.710;2023-06-14T01:19:25;3.33;;;3.13;;
10122;SDS011;5101;49.038;8.710;2023-06-14T01:21:53;3.47;;;3.25;;
10122;SDS011;5101;49.038;8.710;2023-06-14T01:24:20;3.63;;;3.33;;
10122;SDS011;5101;49.038;8.710;2023-06-14T01:26:48;3.80;;;3.50;;
10122;SDS011;5101;49.038;8.710;2023-06-14T01:29:16;5.28;;;3.53;;
10122;SDS011;5101;49.038;8.710;2023-06-14T01:31:42;4.57;;;3.35;;
10122;SDS011;5101;49.038;8.710;2023-06-14T01:34:08;4.15;;;3.75;;
10122;SDS011;5101;49.038;8.710;2023-06-14T01:36:35;3.92;;;3.17;;
10122;SDS011;5101;49.038;8.710;2023-06-14T01:39:05;4.07;;;3.35;;
10122;SDS011;5101;49.038;8.710;2023-06-14T01:41:32;3.95;;;3.42;;
10122;SDS011;5101;49.038;8.710;2023-06-14T01:43:59;7.57;;;3.30;;
10122;SDS011;5101;49.038;8.710;2023-06-14T01:46:25;4.07;;;3.65;;
10122;SDS011;5101;49.038;8.710;2023-06-14T01:48:51;4.03;;;3.45;;
10122;SDS011;5101;49.038;8.710;2023-06-14T01:51:17;4.05;;;3.65;;
10122;SDS011;5101;49.038;8.710;2023-06-14T01:53:42;3.72;;;3.42;;
10122;SDS011;5101;49.038;8.710;2023-06-14T01:56:07;3.75;;;3.45;;
10122;SDS011;5101;49.038;8.710;2023-06-14T01:58:33;5.45;;;3.25;;
10122;SDS011;5101;49.038;8.710;2023-06-14T02:00:59;4.57;;;3.35;;
10122;SDS011;5101;49.038;8.710;2023-06-14T02:03:25;3.80;;;3.50;;
10122;SDS011;5101;49.038;8.710;2023-06-14T02:05:51;5.43;;;3.55;;
10122;SDS011;5101;49.038;8.710;2023-06-14T02:08:17;5.00;;;3.50;;
10122;SDS011;5101;49.038;8.710;2023-06-14T02:10:43;3.60;;;3.33;;
10122;SDS011;5101;49.038;8.710;2023-06-14T02:13:08;4.50;;;3.55;;
10122;SDS011;5101;49.038;8.710;2023-06-14T02:15:34;5.65;;;4.00;;
10122;SDS011;5101;49.038;8.710;2023-06-14T02:18:01;3.92;;;3.30;;
10122;SDS011;5101;49.038;8.710;2023-06-14T02:20:27;4.13;;;3.40;;
10122;SDS011;5101;49.038;8.710;2023-06-14T02:22:53;4.22;;;3.85;;
10122;SDS011;5101;49.038;8.710;2023-06-14T02:25:18;3.70;;;3.42;;
10122;SDS011;5101;49.038;8.710;2023-06-14T02:27:44;4.07;;;3.78;;
10122;SDS011;5101;49.038;8.710;2023-06-14T02:30:10;4.53;;;3.40;;
10122;SDS011;5101;49.038;8.710;2023-06-14T02:32:36;5.25;;;3.53;;
10122;SDS011;5101;49.038;8.710;2023-06-14T02:35:02;4.25;;;3.63;;
10122;SDS011;5101;49.038;8.710;2023-06-14T02:37:28;5.95;;;3.70;;
10122;SDS011;5101;49.038;8.710;2023-06-14T02:39:54;3.83;;;3.53;;
10122;SDS011;5101;49.038;8.710;2023-06-14T02:42:19;4.07;;;3.75;;
10122;SDS011;5101;49.038;8.710;2023-06-14T02:44:45;3.67;;;3.38;;
10122;SDS011;5101;49.038;8.710;2023-06-14T02:47:11;4.00;;;3.60;;
10122;SDS011;5101;49.038;8.710;2023-06-14T02:49:37;4.88;;;3.70;;
10122;SDS011;5101;49.038;8.710;2023-06-14T02:52:02;3.90;;;3.60;;
10122;SDS011;5101;49.038;8.710;2023-06-14T02:54:28;4.57;;;4.18;;
10122;SDS011;5101;49.038;8.710;2023-06-14T02:56:54;4.28;;;3.58;;
10122;SDS011;5101;49.038;8.710;2023-06-14T02:59:19;4.03;;;3.72;;
10122;SDS011;5101;49.038;8.710;2023-06-14T03:01:46;6.65;;;3.95;;
10122;SDS011;5101;49.038;8.710;2023-06-14T03:04:12;6.93;;;3.72;;
10122;SDS011;5101;49.038;8.710;2023-06-14T03:06:37;3.65;;;3.35;;
10122;SDS011;5101;49.038;8.710;2023-06-14T03:09:04;4.32;;;3.97;;
10122;SDS011;5101;49.038;8.710;2023-06-14T03:11:30;4.20;;;3.80;;
10122;SDS011;5101;49.038;8.710;2023-06-14T03:13:56;4.60;;;3.90;;
10122;SDS011;5101;49.038;8.710;2023-06-14T03:16:22;5.78;;;4.00;;
10122;SDS011;5101;49.038;8.710;2023-06-14T03:18:49;5.63;;;3.70;;
10122;SDS011;5101;49.038;8.710;2023-06-14T03:21:16;4.47;;;3.53;;
10122;SDS011;5101;49.038;8.710;2023-06-14T03:23:42;8.23;;;4.00;;
10122;SDS011;5101;49.038;8.710;2023-06-14T03:26:08;4.50;;;3.90;;
10122;SDS011;5101;49.038;8.710;2023-06-14T03:28:39;4.07;;;3.78;;
10122;SDS011;5101;49.038;8.710;2023-06-14T03:31:05;4.38;;;3.95;;
10122;SDS011;5101;49.038;8.710;2023-06-14T03:33:30;5.07;;;3.80;;
10122;SDS011;5101;49.038;8.710;2023-06-14T03:35:56;4.07;;;3.63;;
10122;SDS011;5101;49.038;8.710;2023-06-14T03:38:21;4.00;;;3.70;;
10122;SDS011;5101;49.038;8.710;2023-06-14T03:40:47;6.70;;;4.05;;
10122;SDS011;5101;49.038;8.710;2023-06-14T03:43:12;5.80;;;4.18;;
10122;SDS011;5101;49.038;8.710;2023-06-14T03:45:38;4.53;;;4.07;;
10122;SDS011;5101;49.038;8.710;2023-06-14T03:48:03;6.78;;;4.35;;
10122;SDS011;5101;49.038;8.710;2023-06-14T03:50:31;5.35;;;4.30;;
10122;SDS011;5101;49.038;8.710;2023-06-14T03:52:57;5.13;;;3.90;;
10122;SDS011;5101;49.038;8.710;2023-06-14T03:55:23;5.25;;;3.90;;
10122;SDS011;5101;49.038;8.710;2023-06-14T03:57:50;5.15;;;3.50;;
10122;SDS011;5101;49.038;8.710;2023-06-14T04:00:16;4.35;;;3.95;;
10122;SDS011;5101;49.038;8.710;2023-06-14T04:02:43;5.13;;;4.05;;
10122;SDS011;5101;49.038;8.710;2023-06-14T04:05:09;4.47;;;4.07;;
10122;SDS011;5101;49.038;8.710;2023-06-14T04:07:35;4.35;;;3.95;;
10122;SDS011;5101;49.038;8.710;2023-06-14T04:10:05;4.30;;;3.90;;
10122;SDS011;5101;49.038;8.710;2023-06-14T04:12:32;5.28;;;3.90;;
10122;SDS011;5101;49.038;8.710;2023-06-14T04:14:57;4.30;;;3.90;;
10122;SDS011;5101;49.038;8.710;2023-06-14T04:17:23;4.85;;;4.45;;
10122;SDS011;5101;49.038;8.710;2023-06-14T04:19:48;7.97;;;4.07;;
10122;SDS011;5101;49.038;8.710;2023-06-14T04:22:14;4.25;;;3.95;;
10122;SDS011;5101;49.038;8.710;2023-06-14T04:24:39;6.72;;;4.30;;
10122;SDS011;5101;49.038;8.710;2023-06-14T04:27:07;5.95;;;4.30;;
10122;SDS011;5101;49.038;8.710;2023-06-14T04:29:32;4.78;;;4.32;;
10122;SDS011;5101;49.038;8.710;2023-06-14T04:31:58;4.80;;;4.35;;
10122;SDS011;5101;49.038;8.710;2023-06-14T04:34:25;4.38;;;3.85;;
10122;SDS011;5101;49.038;8.710;2023-06-14T04:36:54;5.78;;;4.07;;
10122;SDS011;5101;49.038;8.710;2023-06-14T04:39:21;4.78;;;4.22;;
10122;SDS011;5101;49.038;8.710;2023-06-14T04:41:47;4.90;;;4.38;;
10122;SDS011;5101;49.038;8.710;2023-06-14T04:44:18;4.95;;;4.40;;
10122;SDS011;5101;49.038;8.710;2023-06-14T04:46:45;6.25;;;3.92;;
10122;SDS011;5101;49.038;8.710;2023-06-14T04:49:14;7.43;;;4.32;;
10122;SDS011;5101;49.038;8.710;2023-06-14T04:51:41;9.65;;;4.88;;
10122;SDS011;5101;49.038;8.710;2023-06-14T04:54:07;8.60;;;4.40;;
10122;SDS011;5101;49.038;8.710;2023-06-14T04:56:39;9.02;;;4.70;;
10122;SDS011;5101;49.038;8.710;2023-06-14T04:59:05;9.07;;;4.43;;
10122;SDS011;5101;49.038;8.710;2023-06-14T05:01:31;7.25;;;5.00;;
10122;SDS011;5101;49.038;8.710;2023-06-14T05:03:57;6.38;;;4.80;;
10122;SDS011;5101;49.038;8.710;2023-06-14T05:06:23;4.30;;;4.00;;
10122;SDS011;5101;49.038;8.710;2023-06-14T05:08:48;4.57;;;4.18;;
10122;SDS011;5101;49.038;8.710;2023-06-14T05:11:14;6.10;;;3.65;;
10122;SDS011;5101;49.038;8.710;2023-06-14T05:13:41;4.55;;;4.18;;
10122;SDS011;5101;49.038;8.710;2023-06-14T05:16:07;7.47;;;3.85;;
10122;SDS011;5101;49.038;8.710;2023-06-14T05:18:33;5.72;;;3.88;;
10122;SDS011;5101;49.038;8.710;2023-06-14T05:21:00;4.82;;;3.92;;
10122;SDS011;5101;49.038;8.710;2023-06-14T05:23:26;5.18;;;4.07;;
10122;SDS011;5101;49.038;8.710;2023-06-14T05:25:51;5.30;;;3.47;;
10122;SDS011;5101;49.038;8.710;2023-06-14T05:28:17;4.72;;;4.10;;
10122;SDS011;5101;49.038;8.710;2023-06-14T05:30:42;4.47;;;3.97;;
10122;SDS011;5101;49.038;8.710;2023-06-14T05:33:08;4.95;;;3.83;;
10122;SDS011;5101;49.038;8.710;2023-06-14T05:35:34;6.07;;;3.78;;
10122;SDS011;5101;49.038;8.710;2023-06-14T05:37:59;6.03;;;3.70;;
10122;SDS011;5101;49.038;8.710;2023-06-14T05:40:25;6.25;;;3.53;;
10122;SDS011;5101;49.038;8.710;2023-06-14T05:42:50;4.13;;;3.47;;
10122;SDS011;5101;49.038;8.710;2023-06-14T05:45:16;5.45;;;3.67;;
10122;SDS011;5101;49.038;8.710;2023-06-14T05:47:42;7.72;;;4.05;;
10122;SDS011;5101;49.038;8.710;2023-06-14T05:50:07;4.93;;;3.60;;
10122;SDS011;5101;49.038;8.710;2023-06-14T05:52:34;8.20;;;3.90;;
10122;SDS011;5101;49.038;8.710;2023-06-14T05:55:00;3.85;;;3.55;;
10122;SDS011;5101;49.038;8.710;2023-06-14T05:57:26;3.72;;;3.30;;
10122;SDS011;5101;49.038;8.710;2023-06-14T05:59:51;3.80;;;3.47;;
10122;SDS011;5101;49.038;8.710;2023-06-14T06:02:17;6.10;;;3.60;;
10122;SDS011;5101;49.038;8.710;2023-06-14T06:04:42;4.43;;;3.13;;
10122;SDS011;5101;49.038;8.710;2023-06-14T06:07:08;4.13;;;3.60;;
10122;SDS011;5101;49.038;8.710;2023-06-14T06:09:33;4.28;;;3.58;;
10122;SDS011;5101;49.038;8.710;2023-06-14T06:11:59;7.03;;;4.00;;
10122;SDS011;5101;49.038;8.710;2023-06-14T06:14:24;9.43;;;3.60;;
10122;SDS011;5101;49.038;8.710;2023-06-14T06:16:50;3.70;;;3.40;;
10122;SDS011;5101;49.038;8.710;2023-06-14T06:19:17;3.70;;;3.40;;
10122;SDS011;5101;49.038;8.710;2023-06-14T06:21:43;4.15;;;3.50;;
10122;SDS011;5101;49.038;8.710;2023-06-14T06:24:08;3.75;;;3.42;;
10122;SDS011;5101;49.038;8.710;2023-06-14T06:26:34;4.88;;;3.50;;
10122;SDS011;5101;49.038;8.710;2023-06-14T06:28:59;5.75;;;3.60;;
10122;SDS011;5101;49.038;8.710;2023-06-14T06:31:25;5.72;;;3.45;;
10122;SDS011;5101;49.038;8.710;2023-06-14T06:33:52;4.43;;;3.50;;
10122;SDS011;5101;49.038;8.710;2023-06-14T06:36:19;4.75;;;3.45;;
10122;SDS011;5101;49.038;8.710;2023-06-14T06:38:45;4.72;;;3.25;;
10122;SDS011;5101;49.038;8.710;2023-06-14T06:41:11;3.65;;;3.20;;
10122;SDS011;5101;49.038;8.710;2023-06-14T06:43:36;5.18;;;3.17;;
10122;SDS011;5101;49.038;8.710;2023-06-14T06:46:02;4.75;;;3.10;;
10122;SDS011;5101;49.038;8.710;2023-06-14T06:48:27;3.58;;;3.22;;
10122;SDS011;5101;49.038;8.710;2023-06-14T06:50:53;3.90;;;3.40;;
10122;SDS011;5101;49.038;8.710;2023-06-14T06:53:19;4.03;;;3.33;;
10122;SDS011;5101;49.038;8.710;2023-06-14T06:55:44;5.18;;;3.53;;
10122;SDS011;5101;49.038;8.710;2023-06-14T06:58:10;4.85;;;3.92;;
10122;SDS011;5101;49.038;8.710;2023-06-14T07:00:36;3.05;;;2.85;;
10122;SDS011;5101;49.038;8.710;2023-06-14T07:03:02;4.55;;;3.13;;
10122;SDS011;5101;49.038;8.710;2023-06-14T07:05:29;3.97;;;3.10;;
10122;SDS011;5101;49.038;8.710;2023-06-14T07:07:54;3.25;;;2.88;;
10122;SDS011;5101;49.038;8.710;2023-06-14T07:10:20;3.40;;;3.10;;
10122;SDS011;5101;49.038;8.710;2023-06-14T07:12:46;3.58;;;3.17;;
10122;SDS011;5101;49.038;8.710;2023-06-14T07:15:11;3.42;;;3.13;;
10122;SDS011;5101;49.038;8.710;2023-06-14T07:17:37;3.58;;;3.28;;
10122;SDS011;5101;49.038;8.710;2023-06-14T07:20:03;3.17;;;2.88;;
10122;SDS011;5101;49.038;8.710;2023-06-14T07:22:39;5.28;;;3.20;;
10122;SDS011;5101;49.038;8.710;2023-06-14T07:25:06;3.22;;;2.78;;
10122;SDS011;5101;49.038;8.710;2023-06-14T07:27:33;3.45;;;2.70;;
10122;SDS011;5101;49.038;8.710;2023-06-14T07:29:58;3.33;;;2.53;;
10122;SDS011;5101;49.038;8.710;2023-06-14T07:32:24;5.70;;;2.80;;
10122;SDS011;5101;49.038;8.710;2023-06-14T07:34:50;5.35;;;3.10;;
10122;SDS011;5101;49.038;8.710;2023-06-14T07:37:15;5.57;;;2.85;;
10122;SDS011;5101;49.038;8.710;2023-06-14T07:39:42;2.65;;;2.47;;
10122;SDS011;5101;49.038;8.710;2023-06-14T07:42:07;5.15;;;3.00;;
10122;SDS011;5101;49.038;8.710;2023-06-14T07:44:33;3.45;;;3.13;;
10122;SDS011;5101;49.038;8.710;2023-06-14T07:46:58;3.40;;;2.95;;
10122;SDS011;5101;49.038;8.710;2023-06-14T07:49:24;4.95;;;3.20;;
10122;SDS011;5101;49.038;8.710;2023-06-14T07:51:50;5.93;;;3.03;;
10122;SDS011;5101;49.038;8.710;2023-06-14T07:54:16;3.28;;;2.55;;
10122;SDS011;5101;49.038;8.710;2023-06-14T07:56:42;3.38;;;3.08;;
10122;SDS011;5101;49.038;8.710;2023-06-14T07:59:07;3.10;;;2.90;;
10122;SDS011;5101;49.038;8.710;2023-06-14T08:01:34;3.67;;;2.80;;
10122;SDS011;5101;49.038;8.710;2023-06-14T08:03:59;4.25;;;2.75;;
10122;SDS011;5101;49.038;8.710;2023-06-14T08:06:26;2.40;;;2.20;;
10122;SDS011;5101;49.038;8.710;2023-06-14T08:08:51;7.03;;;2.55;;
10122;SDS011;5101;49.038;8.710;2023-06-14T08:11:17;2.90;;;2.53;;
10122;SDS011;5101;49.038;8.710;2023-06-14T08:13:42;4.32;;;2.85;;
10122;SDS011;5101;49.038;8.710;2023-06-14T08:16:08;5.07;;;2.55;;
10122;SDS011;5101;49.038;8.710;2023-06-14T08:18:34;4.55;;;2.80;;
10122;SDS011;5101;49.038;8.710;2023-06-14T08:20:59;3.58;;;2.65;;
10122;SDS011;5101;49.038;8.710;2023-06-14T08:23:25;3.15;;;2.85;;
10122;SDS011;5101;49.038;8.710;2023-06-14T08:25:50;4.97;;;2.90;;
10122;SDS011;5101;49.038;8.710;2023-06-14T08:28:16;2.72;;;2.22;;
10122;SDS011;5101;49.038;8.710;2023-06-14T08:30:42;3.97;;;2.85;;
10122;SDS011;5101;49.038;8.710;2023-06-14T08:33:07;2.50;;;2.30;;
10122;SDS011;5101;49.038;8.710;2023-06-14T08:35:33;3.47;;;2.95;;
10122;SDS011;5101;49.038;8.710;2023-06-14T08:38:02;4.47;;;3.00;;
10122;SDS011;5101;49.038;8.710;2023-06-14T08:40:28;3.67;;;2.90;;
10122;SDS011;5101;49.038;8.710;2023-06-14T08:42:55;3.40;;;2.70;;
10122;SDS011;5101;49.038;8.710;2023-06-14T08:45:21;3.80;;;2.78;;
10122;SDS011;5101;49.038;8.710;2023-06-14T08:47:48;3.60;;;2.78;;
10122;SDS011;5101;49.038;8.710;2023-06-14T08:50:18;3.80;;;2.88;;
10122;SDS011;5101;49.038;8.710;2023-06-14T08:52:45;3.85;;;2.85;;
10122;SDS011;5101;49.038;8.710;2023-06-14T08:55:15;3.00;;;2.70;;
10122;SDS011;5101;49.038;8.710;2023-06-14T08:57:42;3.88;;;2.80;;
10122;SDS011;5101;49.038;8.710;2023-06-14T09:00:10;5.97;;;2.72;;
10122;SDS011;5101;49.038;8.710;2023-06-14T09:02:38;6.68;;;2.78;;
10122;SDS011;5101;49.038;8.710;2023-06-14T09:05:08;4.72;;;2.85;;
10122;SDS011;5101;49.038;8.710;2023-06-14T09:07:35;7.07;;;3.15;;
10122;SDS011;5101;49.038;8.710;2023-06-14T09:10:10;3.35;;;2.60;;
10122;SDS011;5101;49.038;8.710;2023-06-14T09:12:39;4.30;;;2.85;;
10122;SDS011;5101;49.038;8.710;2023-06-14T09:15:05;4.85;;;2.85;;
10122;SDS011;5101;49.038;8.710;2023-06-14T09:17:33;5.20;;;2.80;;
10122;SDS011;5101;49.038;8.710;2023-06-14T09:20:03;5.95;;;2.80;;
10122;SDS011;5101;49.038;8.710;2023-06-14T09:22:36;2.85;;;2.65;;
10122;SDS011;5101;49.038;8.710;2023-06-14T09:25:02;4.63;;;2.90;;
10122;SDS011;5101;49.038;8.710;2023-06-14T09:27:29;5.80;;;2.47;;
10122;SDS011;5101;49.038;8.710;2023-06-14T09:29:55;5.55;;;2.75;;
10122;SDS011;5101;49.038;8.710;2023-06-14T09:32:21;4.35;;;2.85;;
10122;SDS011;5101;49.038;8.710;2023-06-14T09:34:47;3.42;;;2.75;;
10122;SDS011;5101;49.038;8.710;2023-06-14T09:37:13;3.78;;;2.78;;
10122;SDS011;5101;49.038;8.710;2023-06-14T09:39:51;3.15;;;2.80;;
10122;SDS011;5101;49.038;8.710;2023-06-14T09:42:17;3.17;;;2.88;;
10122;SDS011;5101;49.038;8.710;2023-06-14T09:44:44;4.55;;;2.10;;
10122;SDS011;5101;49.038;8.710;2023-06-14T09:47:12;3.47;;;2.38;;
10122;SDS011;5101;49.038;8.710;2023-06-14T09:49:39;2.50;;;2.30;;
10122;SDS011;5101;49.038;8.710;2023-06-14T09:52:05;4.50;;;2.60;;
10122;SDS011;5101;49.038;8.710;2023-06-14T09:54:34;4.85;;;2.80;;
10122;SDS011;5101;49.038;8.710;2023-06-14T09:57:07;2.75;;;2.22;;
10122;SDS011;5101;49.038;8.710;2023-06-14T09:59:35;5.18;;;2.30;;
10122;SDS011;5101;49.038;8.710;2023-06-14T10:02:04;2.35;;;2.13;;
10122;SDS011;5101;49.038;8.710;2023-06-14T10:04:36;2.72;;;2.40;;
10122;SDS011;5101;49.038;8.710;2023-06-14T10:07:02;5.75;;;2.45;;
10122;SDS011;5101;49.038;8.710;2023-06-14T10:09:29;2.75;;;2.50;;
10122;SDS011;5101;49.038;8.710;2023-06-14T10:11:55;3.33;;;2.55;;
10122;SDS011;5101;49.038;8.710;2023-06-14T10:14:21;4.30;;;2.42;;
10122;SDS011;5101;49.038;8.710;2023-06-14T10:16:52;7.80;;;2.70;;
10122;SDS011;5101;49.038;8.710;2023-06-14T10:19:39;3.67;;;2.58;;
10122;SDS011;5101;49.038;8.710;2023-06-14T10:22:18;3.88;;;2.15;;
10122;SDS011;5101;49.038;8.710;2023-06-14T10:24:50;3.28;;;2.38;;
10122;SDS011;5101;49.038;8.710;2023-06-14T10:27:15;2.67;;;2.20;;
10122;SDS011;5101;49.038;8.710;2023-06-14T10:32:23;2.90;;;2.67;;
10122;SDS011;5101;49.038;8.710;2023-06-14T10:34:53;2.53;;;2.33;;
10122;SDS011;5101;49.038;8.710;2023-06-14T10:37:23;3.97;;;2.10;;
10122;SDS011;5101;49.038;8.710;2023-06-14T10:39:49;2.10;;;2.00;;
10122;SDS011;5101;49.038;8.710;2023-06-14T10:42:15;4.30;;;2.63;;
10122;SDS011;5101;49.038;8.710;2023-06-14T10:44:50;7.65;;;2.33;;
10122;SDS011;5101;49.038;8.710;2023-06-14T10:49:49;4.15;;;2.08;;
10122;SDS011;5101;49.038;8.710;2023-06-14T10:52:24;4.55;;;2.63;;
10122;SDS011;5101;49.038;8.710;2023-06-14T10:54:59;2.55;;;2.35;;
10122;SDS011;5101;49.038;8.710;2023-06-14T10:57:34;4.03;;;2.22;;
10122;SDS011;5101;49.038;8.710;2023-06-14T11:00:01;4.57;;;2.50;;
10122;SDS011;5101;49.038;8.710;2023-06-14T11:08:26;2.42;;;2.22;;
10122;SDS011;5101;49.038;8.710;2023-06-14T11:11:09;3.00;;;2.30;;
10122;SDS011;5101;49.038;8.710;2023-06-14T11:13:38;2.25;;;2.15;;
10122;SDS011;5101;49.038;8.710;2023-06-14T11:16:09;4.82;;;2.40;;
10122;SDS011;5101;49.038;8.710;2023-06-14T11:18:39;2.60;;;2.30;;
10122;SDS011;5101;49.038;8.710;2023-06-14T11:21:04;2.35;;;2.20;;
10122;SDS011;5101;49.038;8.710;2023-06-14T11:23:30;3.75;;;2.45;;
10122;SDS011;5101;49.038;8.710;2023-06-14T11:25:56;2.70;;;2.50;;
10122;SDS011;5101;49.038;8.710;2023-06-14T11:28:21;4.88;;;2.35;;
10122;SDS011;5101;49.038;8.710;2023-06-14T11:30:48;4.82;;;2.30;;
10122;SDS011;5101;49.038;8.710;2023-06-14T11:33:24;4.25;;;2.20;;
10122;SDS011;5101;49.038;8.710;2023-06-14T11:35:50;4.20;;;2.72;;
10122;SDS011;5101;49.038;8.710;2023-06-14T11:38:16;2.40;;;2.20;;
10122;SDS011;5101;49.038;8.710;2023-06-14T11:40:42;2.50;;;2.30;;
10122;SDS011;5101;49.038;8.710;2023-06-14T11:43:07;3.53;;;2.28;;
10122;SDS011;5101;49.038;8.710;2023-06-14T11:45:33;2.88;;;2.05;;
10122;SDS011;5101;49.038;8.710;2023-06-14T11:47:58;2.67;;;2.38;;
10122;SDS011;5101;49.038;8.710;2023-06-14T11:50:25;3.85;;;2.70;;
10122;SDS011;5101;49.038;8.710;2023-06-14T11:52:54;2.72;;;2.50;;
10122;SDS011;5101;49.038;8.710;2023-06-14T11:55:22;4.20;;;2.38;;
10122;SDS011;5101;49.038;8.710;2023-06-14T11:57:48;2.55;;;2.35;;
10122;SDS011;5101;49.038;8.710;2023-06-14T12:00:14;2.65;;;2.30;;
10122;SDS011;5101;49.038;8.710;2023-06-14T12:02:40;3.45;;;2.22;;
10122;SDS011;5101;49.038;8.710;2023-06-14T12:05:07;2.47;;;2.28;;
10122;SDS011;5101;49.038;8.710;2023-06-14T12:07:35;4.72;;;2.20;;
10122;SDS011;5101;49.038;8.710;2023-06-14T12:12:28;3.22;;;2.10;;
10122;SDS011;5101;49.038;8.710;2023-06-14T12:14:55;2.72;;;2.42;;
10122;SDS011;5101;49.038;8.710;2023-06-14T12:17:21;3.35;;;2.10;;
10122;SDS011;5101;49.038;8.710;2023-06-14T12:19:48;3.17;;;2.17;;
10122;SDS011;5101;49.038;8.710;2023-06-14T12:22:15;2.40;;;2.20;;
10122;SDS011;5101;49.038;8.710;2023-06-14T12:24:44;3.38;;;2.25;;
10122;SDS011;5101;49.038;8.710;2023-06-14T12:27:10;3.58;;;2.10;;
10122;SDS011;5101;49.038;8.710;2023-06-14T12:29:40;4.88;;;2.28;;
10122;SDS011;5101;49.038;8.710;2023-06-14T12:32:08;6.55;;;2.33;;
10122;SDS011;5101;49.038;8.710;2023-06-14T12:34:34;4.80;;;2.30;;
10122;SDS011;5101;49.038;8.710;2023-06-14T12:37:00;2.97;;;2.30;;
10122;SDS011;5101;49.038;8.710;2023-06-14T12:39:26;3.58;;;2.17;;
10122;SDS011;5101;49.038;8.710;2023-06-14T12:41:51;4.18;;;2.05;;
10122;SDS011;5101;49.038;8.710;2023-06-14T12:44:17;4.95;;;1.90;;
10122;SDS011;5101;49.038;8.710;2023-06-14T12:46:43;2.60;;;2.17;;
10122;SDS011;5101;49.038;8.710;2023-06-14T12:49:11;2.28;;;2.08;;
10122;SDS011;5101;49.038;8.710;2023-06-14T12:51:37;2.45;;;2.15;;
10122;SDS011;5101;49.038;8.710;2023-06-14T12:54:04;3.13;;;2.08;;
10122;SDS011;5101;49.038;8.710;2023-06-14T12:56:29;5.13;;;2.30;;
10122;SDS011;5101;49.038;8.710;2023-06-14T12:58:55;2.55;;;1.80;;
10122;SDS011;5101;49.038;8.710;2023-06-14T13:01:21;3.58;;;1.73;;
10122;SDS011;5101;49.038;8.710;2023-06-14T13:03:47;2.20;;;2.00;;
10122;SDS011;5101;49.038;8.710;2023-06-14T13:06:12;4.93;;;2.15;;
10122;SDS011;5101;49.038;8.710;2023-06-14T13:08:38;2.67;;;2.17;;
10122;SDS011;5101;49.038;8.710;2023-06-14T13:11:04;2.10;;;2.00;;
10122;SDS011;5101;49.038;8.710;2023-06-14T13:13:29;4.18;;;1.80;;
10122;SDS011;5101;49.038;8.710;2023-06-14T13:15:55;5.60;;;2.15;;
10122;SDS011;5101;49.038;8.710;2023-06-14T13:18:21;2.40;;;2.13;;
10122;SDS011;5101;49.038;8.710;2023-06-14T13:20:46;1.95;;;1.83;;
10122;SDS011;5101;49.038;8.710;2023-06-14T13:23:12;5.40;;;2.13;;
10122;SDS011;5101;49.038;8.710;2023-06-14T13:25:38;2.00;;;1.90;;
10122;SDS011;5101;49.038;8.710;2023-06-14T13:28:04;2.45;;;2.20;;
10122;SDS011;5101;49.038;8.710;2023-06-14T13:30:31;2.15;;;1.95;;
10122;SDS011;5101;49.038;8.710;2023-06-14T13:32:57;2.47;;;2.28;;
10122;SDS011;5101;49.038;8.710;2023-06-14T13:35:23;2.88;;;1.77;;
10122;SDS011;5101;49.038;8.710;2023-06-14T13:37:49;2.53;;;2.20;;
10122;SDS011;5101;49.038;8.710;2023-06-14T13:40:15;2.55;;;2.20;;
10122;SDS011;5101;49.038;8.710;2023-06-14T13:42:41;2.40;;;2.17;;
10122;SDS011;5101;49.038;8.710;2023-06-14T13:45:07;4.05;;;1.95;;
10122;SDS011;5101;49.038;8.710;2023-06-14T13:47:33;7.85;;;2.15;;
10122;SDS011;5101;49.038;8.710;2023-06-14T13:49:59;3.88;;;1.85;;
10122;SDS011;5101;49.038;8.710;2023-06-14T13:52:25;2.33;;;2.08;;
10122;SDS011;5101;49.038;8.710;2023-06-14T13:54:51;3.90;;;2.35;;
10122;SDS011;5101;49.038;8.710;2023-06-14T13:57:16;3.75;;;2.20;;
10122;SDS011;5101;49.038;8.710;2023-06-14T13:59:42;2.55;;;2.28;;
10122;SDS011;5101;49.038;8.710;2023-06-14T14:02:09;2.78;;;2.00;;
10122;SDS011;5101;49.038;8.710;2023-06-14T14:04:35;2.28;;;2.00;;
10122;SDS011;5101;49.038;8.710;2023-06-14T14:07:01;2.92;;;2.10;;
10122;SDS011;5101;49.038;8.710;2023-06-14T14:09:28;2.00;;;1.90;;
10122;SDS011;5101;49.038;8.710;2023-06-14T14:11:53;3.20;;;2.25;;
10122;SDS011;5101;49.038;8.710;2023-06-14T14:14:19;5.00;;;2.70;;
10122;SDS011;5101;49.038;8.710;2023-06-14T14:16:45;3.63;;;2.00;;
10122;SDS011;5101;49.038;8.710;2023-06-14T14:19:10;2.20;;;2.10;;
10122;SDS011;5101;49.038;8.710;2023-06-14T14:21:36;1.80;;;1.70;;
10122;SDS011;5101;49.038;8.710;2023-06-14T14:24:02;2.85;;;2.28;;
10122;SDS011;5101;49.038;8.710;2023-06-14T14:26:28;4.13;;;2.30;;
10122;SDS011;5101;49.038;8.710;2023-06-14T14:28:54;2.28;;;2.08;;
10122;SDS011;5101;49.038;8.710;2023-06-14T14:31:19;3.65;;;2.22;;
10122;SDS011;5101;49.038;8.710;2023-06-14T14:33:45;3.22;;;1.92;;
10122;SDS011;5101;49.038;8.710;2023-06-14T14:36:10;2.30;;;2.10;;
10122;SDS011;5101;49.038;8.710;2023-06-14T14:38:36;2.67;;;1.90;;
10122;SDS011;5101;49.038;8.710;2023-06-14T14:41:01;2.25;;;1.98;;
10122;SDS011;5101;49.038;8.710;2023-06-14T14:43:27;2.50;;;2.30;;
10122;SDS011;5101;49.038;8.710;2023-06-14T14:45:55;3.03;;;2.00;;
10122;SDS011;5101;49.038;8.710;2023-06-14T14:48:21;5.10;;;2.33;;
10122;SDS011;5101;49.038;8.710;2023-06-14T14:50:46;2.03;;;1.92;;
10122;SDS011;5101;49.038;8.710;2023-06-14T14:53:13;2.60;;;2.40;;
10122;SDS011;5101;49.038;8.710;2023-06-14T14:55:38;2.53;;;2.28;;
10122;SDS011;5101;49.038;8.710;2023-06-14T14:58:06;2.20;;;2.03;;
10122;SDS011;5101;49.038;8.710;2023-06-14T15:00:31;2.30;;;2.20;;
10122;SDS011;5101;49.038;8.710;2023-06-14T15:02:57;2.08;;;1.90;;
10122;SDS011;5101;49.038;8.710;2023-06-14T15:05:22;2.08;;;1.90;;
10122;SDS011;5101;49.038;8.710;2023-06-14T15:07:48;2.50;;;2.17;;
10122;SDS011;5101;49.038;8.710;2023-06-14T15:10:13;2.58;;;2.30;;